sensor_id;sensor_type;location;lat;lon;timestamp;temperature;humidity
59311;DHT22;45078;51.654;21.250;2023-01-30T00:01:26;0.60;99.90
59311;DHT22;45078;51.654;21.250;2023-01-30T00:03:51;0.60;99.90
59311;DHT22;45078;51.654;21.250;2023-01-30T00:06:18;0.70;99.90
59311;DHT22;45078;51.654;21.250;2023-01-30T00:08:44;0.70;99.90
59311;DHT22;45078;51.654;21.250;2023-01-30T00:11:11;0.70;99.90
59311;DHT22;45078;51.654;21.250;2023-01-30T00:13:38;0.70;99.90
59311;DHT22;45078;51.654;21.250;2023-01-30T00:16:04;0.70;99.90
59311;DHT22;45078;51.654;21.250;2023-01-30T00:18:31;0.70;99.90
59311;DHT22;45078;51.654;21.250;2023-01-30T00:20:58;0.70;99.90
59311;DHT22;45078;51.654;21.250;2023-01-30T00:23:25;0.70;99.90
59311;DHT22;45078;51.654;21.250;2023-01-30T00:25:51;0.70;99.90
59311;DHT22;45078;51.654;21.250;2023-01-30T00:28:18;0.70;99.90
59311;DHT22;45078;51.654;21.250;2023-01-30T00:30:44;0.70;99.90
59311;DHT22;45078;51.654;21.250;2023-01-30T00:33:11;0.70;99.90
59311;DHT22;45078;51.654;21.250;2023-01-30T00:35:37;0.70;99.90
59311;DHT22;45078;51.654;21.250;2023-01-30T00:38:07;0.70;99.90
59311;DHT22;45078;51.654;21.250;2023-01-30T00:40:33;0.70;99.90
59311;DHT22;45078;51.654;21.250;2023-01-30T00:42:58;0.70;99.90
59311;DHT22;45078;51.654;21.250;2023-01-30T00:45:44;0.80;99.90
59311;DHT22;45078;51.654;21.250;2023-01-30T00:48:29;0.80;99.90
59311;DHT22;45078;51.654;21.250;2023-01-30T00:50:55;0.80;99.90
59311;DHT22;45078;51.654;21.250;2023-01-30T00:53:21;0.80;99.90
59311;DHT22;45078;51.654;21.250;2023-01-30T00:55:50;0.80;99.90
59311;DHT22;45078;51.654;21.250;2023-01-30T00:58:16;0.80;99.90
59311;DHT22;45078;51.654;21.250;2023-01-30T01:00:42;0.80;99.90
59311;DHT22;45078;51.654;21.250;2023-01-30T01:03:08;0.80;99.90
59311;DHT22;45078;51.654;21.250;2023-01-30T01:05:34;0.70;99.90
59311;DHT22;45078;51.654;21.250;2023-01-30T01:08:00;0.70;99.90
59311;DHT22;45078;51.654;21.250;2023-01-30T01:10:26;0.70;99.90
59311;DHT22;45078;51.654;21.250;2023-01-30T01:12:52;0.70;99.90
59311;DHT22;45078;51.654;21.250;2023-01-30T01:15:18;0.70;99.90
59311;DHT22;45078;51.654;21.250;2023-01-30T01:17:44;0.70;99.90
59311;DHT22;45078;51.654;21.250;2023-01-30T01:20:10;0.70;99.90
59311;DHT22;45078;51.654;21.250;2023-01-30T01:22:37;0.70;99.90
59311;DHT22;45078;51.654;21.250;2023-01-30T01:25:04;0.70;99.90
59311;DHT22;45078;51.654;21.250;2023-01-30T01:27:30;0.70;99.90
59311;DHT22;45078;51.654;21.250;2023-01-30T01:29:56;0.70;99.90
59311;DHT22;45078;51.654;21.250;2023-01-30T01:32:21;0.70;99.90
59311;DHT22;45078;51.654;21.250;2023-01-30T01:34:47;0.70;99.90
59311;DHT22;45078;51.654;21.250;2023-01-30T01:37:13;0.70;99.90
59311;DHT22;45078;51.654;21.250;2023-01-30T01:39:39;0.70;99.90
59311;DHT22;45078;51.654;21.250;2023-01-30T01:42:25;0.70;99.90
59311;DHT22;45078;51.654;21.250;2023-01-30T01:47:30;0.70;99.90
59311;DHT22;45078;51.654;21.250;2023-01-30T01:49:57;0.70;99.90
59311;DHT22;45078;51.654;21.250;2023-01-30T01:52:24;0.60;99.90
59311;DHT22;45078;51.654;21.250;2023-01-30T01:55:04;0.60;99.90
59311;DHT22;45078;51.654;21.250;2023-01-30T01:57:39;0.60;99.90
59311;DHT22;45078;51.654;21.250;2023-01-30T02:00:10;0.60;99.90
59311;DHT22;45078;51.654;21.250;2023-01-30T02:02:41;0.60;99.90
59311;DHT22;45078;51.654;21.250;2023-01-30T02:05:07;0.60;99.90
59311;DHT22;45078;51.654;21.250;2023-01-30T02:10:12;0.60;99.90
59311;DHT22;45078;51.654;21.250;2023-01-30T02:12:40;0.60;99.90
59311;DHT22;45078;51.654;21.250;2023-01-30T02:15:06;0.50;99.90
59311;DHT22;45078;51.654;21.250;2023-01-30T02:17:32;0.50;99.90
59311;DHT22;45078;51.654;21.250;2023-01-30T02:20:15;0.50;99.90
59311;DHT22;45078;51.654;21.250;2023-01-30T02:26:42;0.50;99.90
59311;DHT22;45078;51.654;21.250;2023-01-30T02:34:44;0.60;99.90
59311;DHT22;45078;51.654;21.250;2023-01-30T02:37:34;0.60;99.90
59311;DHT22;45078;51.654;21.250;2023-01-30T02:43:12;0.60;99.90
59311;DHT22;45078;51.654;21.250;2023-01-30T02:45:56;0.60;99.90
59311;DHT22;45078;51.654;21.250;2023-01-30T02:48:33;0.70;99.90
59311;DHT22;45078;51.654;21.250;2023-01-30T02:51:08;0.60;99.90
59311;DHT22;45078;51.654;21.250;2023-01-30T02:53:36;0.60;99.90
59311;DHT22;45078;51.654;21.250;2023-01-30T02:56:02;0.70;99.90
59311;DHT22;45078;51.654;21.250;2023-01-30T02:58:32;0.60;99.90
59311;DHT22;45078;51.654;21.250;2023-01-30T03:14:54;0.60;99.90
59311;DHT22;45078;51.654;21.250;2023-01-30T03:17:22;0.60;99.90
59311;DHT22;45078;51.654;21.250;2023-01-30T03:19:50;0.60;99.90
59311;DHT22;45078;51.654;21.250;2023-01-30T03:22:16;0.60;99.90
59311;DHT22;45078;51.654;21.250;2023-01-30T03:24:42;0.60;99.90
59311;DHT22;45078;51.654;21.250;2023-01-30T03:27:10;0.60;99.90
59311;DHT22;45078;51.654;21.250;2023-01-30T03:29:36;0.60;99.90
59311;DHT22;45078;51.654;21.250;2023-01-30T03:32:02;0.60;99.90
59311;DHT22;45078;51.654;21.250;2023-01-30T03:34:28;0.60;99.90
59311;DHT22;45078;51.654;21.250;2023-01-30T03:36:55;0.60;99.90
59311;DHT22;45078;51.654;21.250;2023-01-30T03:39:23;0.60;99.90
59311;DHT22;45078;51.654;21.250;2023-01-30T03:41:49;0.60;99.90
59311;DHT22;45078;51.654;21.250;2023-01-30T03:44:15;0.60;99.90
59311;DHT22;45078;51.654;21.250;2023-01-30T03:46:41;0.60;99.90
59311;DHT22;45078;51.654;21.250;2023-01-30T03:49:06;0.60;99.90
59311;DHT22;45078;51.654;21.250;2023-01-30T03:51:32;0.60;99.90
59311;DHT22;45078;51.654;21.250;2023-01-30T03:53:58;0.60;99.90
59311;DHT22;45078;51.654;21.250;2023-01-30T03:56:24;0.60;99.90
59311;DHT22;45078;51.654;21.250;2023-01-30T03:58:49;0.60;99.90
59311;DHT22;45078;51.654;21.250;2023-01-30T04:01:15;0.60;99.90
59311;DHT22;45078;51.654;21.250;2023-01-30T04:03:41;0.50;99.90
59311;DHT22;45078;51.654;21.250;2023-01-30T04:06:07;0.60;99.90
59311;DHT22;45078;51.654;21.250;2023-01-30T04:08:33;0.60;99.90
59311;DHT22;45078;51.654;21.250;2023-01-30T04:10:59;0.60;99.90
59311;DHT22;45078;51.654;21.250;2023-01-30T04:13:25;0.60;99.90
59311;DHT22;45078;51.654;21.250;2023-01-30T04:15:51;0.60;99.90
59311;DHT22;45078;51.654;21.250;2023-01-30T04:18:17;0.60;99.90
59311;DHT22;45078;51.654;21.250;2023-01-30T04:20:42;0.60;99.90
59311;DHT22;45078;51.654;21.250;2023-01-30T04:23:08;0.60;99.90
59311;DHT22;45078;51.654;21.250;2023-01-30T04:25:34;0.60;99.90
59311;DHT22;45078;51.654;21.250;2023-01-30T04:28:00;0.60;99.90
59311;DHT22;45078;51.654;21.250;2023-01-30T04:30:25;0.60;99.90
59311;DHT22;45078;51.654;21.250;2023-01-30T04:32:51;0.60;99.90
59311;DHT22;45078;51.654;21.250;2023-01-30T04:35:17;0.60;99.90
59311;DHT22;45078;51.654;21.250;2023-01-30T04:37:43;0.60;99.90
59311;DHT22;45078;51.654;21.250;2023-01-30T04:40:09;0.60;99.90
59311;DHT22;45078;51.654;21.250;2023-01-30T04:42:35;0.60;99.90
59311;DHT22;45078;51.654;21.250;2023-01-30T04:45:01;0.60;99.90
59311;DHT22;45078;51.654;21.250;2023-01-30T04:47:26;0.60;99.90
59311;DHT22;45078;51.654;21.250;2023-01-30T04:49:52;0.60;99.90
59311;DHT22;45078;51.654;21.250;2023-01-30T04:52:18;0.60;99.90
59311;DHT22;45078;51.654;21.250;2023-01-30T04:54:44;0.60;99.90
59311;DHT22;45078;51.654;21.250;2023-01-30T04:57:09;0.60;99.90
59311;DHT22;45078;51.654;21.250;2023-01-30T04:59:35;0.60;99.90
59311;DHT22;45078;51.654;21.250;2023-01-30T05:02:01;0.60;99.90
59311;DHT22;45078;51.654;21.250;2023-01-30T05:04:27;0.60;99.90
59311;DHT22;45078;51.654;21.250;2023-01-30T05:06:53;0.60;99.90
59311;DHT22;45078;51.654;21.250;2023-01-30T05:09:18;0.60;99.90
59311;DHT22;45078;51.654;21.250;2023-01-30T05:11:44;0.60;99.90
59311;DHT22;45078;51.654;21.250;2023-01-30T05:14:10;0.60;99.90
59311;DHT22;45078;51.654;21.250;2023-01-30T05:16:36;0.60;99.90
59311;DHT22;45078;51.654;21.250;2023-01-30T05:19:01;0.60;99.90
59311;DHT22;45078;51.654;21.250;2023-01-30T05:21:27;0.60;99.90
59311;DHT22;45078;51.654;21.250;2023-01-30T05:23:54;0.60;99.90
59311;DHT22;45078;51.654;21.250;2023-01-30T05:26:21;0.60;99.90
59311;DHT22;45078;51.654;21.250;2023-01-30T05:28:59;0.60;99.90
59311;DHT22;45078;51.654;21.250;2023-01-30T05:31:25;0.60;99.90
59311;DHT22;45078;51.654;21.250;2023-01-30T05:33:51;0.60;99.90
59311;DHT22;45078;51.654;21.250;2023-01-30T05:36:19;0.60;99.90
59311;DHT22;45078;51.654;21.250;2023-01-30T05:38:45;0.60;99.90
59311;DHT22;45078;51.654;21.250;2023-01-30T05:41:12;0.50;99.90
59311;DHT22;45078;51.654;21.250;2023-01-30T05:43:39;0.60;99.90
59311;DHT22;45078;51.654;21.250;2023-01-30T05:46:05;0.50;99.90
59311;DHT22;45078;51.654;21.250;2023-01-30T05:48:32;0.50;99.90
59311;DHT22;45078;51.654;21.250;2023-01-30T05:50:58;0.50;99.90
59311;DHT22;45078;51.654;21.250;2023-01-30T05:53:27;0.50;99.90
59311;DHT22;45078;51.654;21.250;2023-01-30T05:56:02;0.50;99.90
59311;DHT22;45078;51.654;21.250;2023-01-30T05:58:29;0.40;99.90
59311;DHT22;45078;51.654;21.250;2023-01-30T06:01:06;0.40;99.90
59311;DHT22;45078;51.654;21.250;2023-01-30T06:03:34;0.40;99.90
59311;DHT22;45078;51.654;21.250;2023-01-30T06:06:01;0.40;99.90
59311;DHT22;45078;51.654;21.250;2023-01-30T06:08:27;0.40;99.90
59311;DHT22;45078;51.654;21.250;2023-01-30T06:10:53;0.30;99.90
59311;DHT22;45078;51.654;21.250;2023-01-30T06:13:19;0.30;99.90
59311;DHT22;45078;51.654;21.250;2023-01-30T06:15:45;0.30;99.90
59311;DHT22;45078;51.654;21.250;2023-01-30T06:18:11;0.20;99.90
59311;DHT22;45078;51.654;21.250;2023-01-30T06:20:37;0.20;99.90
59311;DHT22;45078;51.654;21.250;2023-01-30T06:23:03;0.20;99.90
59311;DHT22;45078;51.654;21.250;2023-01-30T06:25:29;0.10;99.90
59311;DHT22;45078;51.654;21.250;2023-01-30T06:27:54;0.20;99.90
59311;DHT22;45078;51.654;21.250;2023-01-30T06:30:20;0.20;99.90
59311;DHT22;45078;51.654;21.250;2023-01-30T06:32:49;0.20;99.90
59311;DHT22;45078;51.654;21.250;2023-01-30T06:35:15;0.20;99.90
59311;DHT22;45078;51.654;21.250;2023-01-30T06:37:43;0.20;99.90
59311;DHT22;45078;51.654;21.250;2023-01-30T06:40:10;0.10;99.90
59311;DHT22;45078;51.654;21.250;2023-01-30T06:42:36;0.20;99.90
59311;DHT22;45078;51.654;21.250;2023-01-30T06:45:02;0.20;99.90
59311;DHT22;45078;51.654;21.250;2023-01-30T06:47:28;0.10;99.90
59311;DHT22;45078;51.654;21.250;2023-01-30T06:49:53;0.10;99.90
59311;DHT22;45078;51.654;21.250;2023-01-30T06:52:19;0.10;99.90
59311;DHT22;45078;51.654;21.250;2023-01-30T06:54:45;0.10;99.90
59311;DHT22;45078;51.654;21.250;2023-01-30T06:57:11;0.10;99.90
59311;DHT22;45078;51.654;21.250;2023-01-30T06:59:37;0.10;99.90
59311;DHT22;45078;51.654;21.250;2023-01-30T07:02:02;0.00;99.90
59311;DHT22;45078;51.654;21.250;2023-01-30T07:04:28;0.00;99.90
59311;DHT22;45078;51.654;21.250;2023-01-30T07:06:54;0.00;99.90
59311;DHT22;45078;51.654;21.250;2023-01-30T07:09:21;0.00;99.90
59311;DHT22;45078;51.654;21.250;2023-01-30T07:11:47;0.00;99.90
59311;DHT22;45078;51.654;21.250;2023-01-30T07:14:14;0.00;99.90
59311;DHT22;45078;51.654;21.250;2023-01-30T07:16:40;0.00;99.90
59311;DHT22;45078;51.654;21.250;2023-01-30T07:19:06;0.00;99.90
59311;DHT22;45078;51.654;21.250;2023-01-30T07:21:31;0.00;99.90
59311;DHT22;45078;51.654;21.250;2023-01-30T07:23:57;-0.10;99.90
59311;DHT22;45078;51.654;21.250;2023-01-30T07:26:24;-0.10;99.90
59311;DHT22;45078;51.654;21.250;2023-01-30T07:28:49;-0.10;99.90
59311;DHT22;45078;51.654;21.250;2023-01-30T07:31:15;-0.20;99.90
59311;DHT22;45078;51.654;21.250;2023-01-30T07:33:41;-0.20;99.90
59311;DHT22;45078;51.654;21.250;2023-01-30T07:36:07;-0.30;99.90
59311;DHT22;45078;51.654;21.250;2023-01-30T07:38:33;-0.30;99.90
59311;DHT22;45078;51.654;21.250;2023-01-30T07:40:58;-0.30;99.90
59311;DHT22;45078;51.654;21.250;2023-01-30T07:43:24;-0.40;99.90
59311;DHT22;45078;51.654;21.250;2023-01-30T07:45:50;-0.40;99.90
59311;DHT22;45078;51.654;21.250;2023-01-30T07:48:18;-0.40;99.90
59311;DHT22;45078;51.654;21.250;2023-01-30T07:50:44;-0.40;99.90
59311;DHT22;45078;51.654;21.250;2023-01-30T07:53:13;-0.40;99.90
59311;DHT22;45078;51.654;21.250;2023-01-30T07:55:39;-0.50;99.90
59311;DHT22;45078;51.654;21.250;2023-01-30T07:58:05;-0.40;99.90
59311;DHT22;45078;51.654;21.250;2023-01-30T08:00:31;-0.40;99.90
59311;DHT22;45078;51.654;21.250;2023-01-30T08:02:57;-0.40;99.90
59311;DHT22;45078;51.654;21.250;2023-01-30T08:05:23;-0.40;99.90
59311;DHT22;45078;51.654;21.250;2023-01-30T08:07:49;-0.40;99.90
59311;DHT22;45078;51.654;21.250;2023-01-30T08:10:15;-0.40;99.90
59311;DHT22;45078;51.654;21.250;2023-01-30T08:12:41;-0.50;99.90
59311;DHT22;45078;51.654;21.250;2023-01-30T08:15:10;-0.40;99.90
59311;DHT22;45078;51.654;21.250;2023-01-30T08:17:36;-0.40;99.90
59311;DHT22;45078;51.654;21.250;2023-01-30T08:20:02;-0.40;99.90
59311;DHT22;45078;51.654;21.250;2023-01-30T08:22:29;-0.40;99.90
59311;DHT22;45078;51.654;21.250;2023-01-30T08:24:55;-0.40;99.90
59311;DHT22;45078;51.654;21.250;2023-01-30T08:27:20;-0.30;99.90
59311;DHT22;45078;51.654;21.250;2023-01-30T08:29:46;-0.30;99.90
59311;DHT22;45078;51.654;21.250;2023-01-30T08:32:12;-0.30;99.90
59311;DHT22;45078;51.654;21.250;2023-01-30T08:34:38;-0.20;99.90
59311;DHT22;45078;51.654;21.250;2023-01-30T08:37:04;-0.30;99.90
59311;DHT22;45078;51.654;21.250;2023-01-30T08:39:30;-0.20;99.90
59311;DHT22;45078;51.654;21.250;2023-01-30T08:41:55;-0.20;99.90
59311;DHT22;45078;51.654;21.250;2023-01-30T08:44:21;-0.20;99.90
59311;DHT22;45078;51.654;21.250;2023-01-30T08:46:47;-0.20;99.90
59311;DHT22;45078;51.654;21.250;2023-01-30T08:49:13;-0.20;99.90
59311;DHT22;45078;51.654;21.250;2023-01-30T08:51:39;-0.10;99.90
59311;DHT22;45078;51.654;21.250;2023-01-30T08:54:04;-0.10;99.90
59311;DHT22;45078;51.654;21.250;2023-01-30T08:56:33;-0.20;99.90
59311;DHT22;45078;51.654;21.250;2023-01-30T08:58:59;-0.20;99.90
59311;DHT22;45078;51.654;21.250;2023-01-30T09:01:25;-0.20;99.90
59311;DHT22;45078;51.654;21.250;2023-01-30T09:03:51;-0.20;99.90
59311;DHT22;45078;51.654;21.250;2023-01-30T09:06:16;-0.20;99.90
59311;DHT22;45078;51.654;21.250;2023-01-30T09:08:42;-0.20;99.90
59311;DHT22;45078;51.654;21.250;2023-01-30T09:11:10;-0.20;99.90
59311;DHT22;45078;51.654;21.250;2023-01-30T09:13:37;-0.20;99.90
59311;DHT22;45078;51.654;21.250;2023-01-30T09:16:08;-0.20;99.90
59311;DHT22;45078;51.654;21.250;2023-01-30T09:18:41;-0.20;99.90
59311;DHT22;45078;51.654;21.250;2023-01-30T09:21:08;-0.30;99.90
59311;DHT22;45078;51.654;21.250;2023-01-30T09:23:34;-0.20;99.90
59311;DHT22;45078;51.654;21.250;2023-01-30T09:26:00;-0.20;99.90
59311;DHT22;45078;51.654;21.250;2023-01-30T09:28:27;-0.30;99.90
59311;DHT22;45078;51.654;21.250;2023-01-30T09:30:54;-0.30;99.90
59311;DHT22;45078;51.654;21.250;2023-01-30T09:33:20;-0.30;99.90
59311;DHT22;45078;51.654;21.250;2023-01-30T09:35:47;-0.30;99.90
59311;DHT22;45078;51.654;21.250;2023-01-30T09:38:12;-0.30;99.90
59311;DHT22;45078;51.654;21.250;2023-01-30T09:46:36;-0.40;99.90
59311;DHT22;45078;51.654;21.250;2023-01-30T09:55:28;-0.40;99.90
59311;DHT22;45078;51.654;21.250;2023-01-30T09:57:56;-0.30;99.90
59311;DHT22;45078;51.654;21.250;2023-01-30T10:00:30;-0.30;99.90
59311;DHT22;45078;51.654;21.250;2023-01-30T10:11:29;-0.30;99.90
59311;DHT22;45078;51.654;21.250;2023-01-30T10:17:02;-0.20;99.90
59311;DHT22;45078;51.654;21.250;2023-01-30T10:25:30;-0.10;99.90
59311;DHT22;45078;51.654;21.250;2023-01-30T10:28:02;-0.10;99.90
59311;DHT22;45078;51.654;21.250;2023-01-30T10:30:32;0.00;99.90
59311;DHT22;45078;51.654;21.250;2023-01-30T10:33:05;0.10;99.90
59311;DHT22;45078;51.654;21.250;2023-01-30T10:35:33;0.10;99.90
59311;DHT22;45078;51.654;21.250;2023-01-30T10:44:07;0.10;99.90
59311;DHT22;45078;51.654;21.250;2023-01-30T10:57:56;0.30;99.90
59311;DHT22;45078;51.654;21.250;2023-01-30T11:03:47;0.30;99.90
59311;DHT22;45078;51.654;21.250;2023-01-30T11:06:14;0.30;99.90
59311;DHT22;45078;51.654;21.250;2023-01-30T11:08:43;0.30;99.90
59311;DHT22;45078;51.654;21.250;2023-01-30T11:14:08;0.30;99.90
59311;DHT22;45078;51.654;21.250;2023-01-30T11:16:52;0.30;99.90
59311;DHT22;45078;51.654;21.250;2023-01-30T11:19:22;0.30;99.90
59311;DHT22;45078;51.654;21.250;2023-01-30T11:21:58;0.30;99.90
59311;DHT22;45078;51.654;21.250;2023-01-30T11:24:31;0.20;99.90
59311;DHT22;45078;51.654;21.250;2023-01-30T11:27:15;0.20;99.90
59311;DHT22;45078;51.654;21.250;2023-01-30T11:29:41;0.20;99.90
59311;DHT22;45078;51.654;21.250;2023-01-30T11:32:27;0.20;99.90
59311;DHT22;45078;51.654;21.250;2023-01-30T11:37:34;0.30;99.90
59311;DHT22;45078;51.654;21.250;2023-01-30T11:42:47;0.40;99.90
59311;DHT22;45078;51.654;21.250;2023-01-30T11:45:14;0.40;99.90
59311;DHT22;45078;51.654;21.250;2023-01-30T11:48:01;0.40;99.90
59311;DHT22;45078;51.654;21.250;2023-01-30T11:50:33;0.40;99.90
59311;DHT22;45078;51.654;21.250;2023-01-30T11:53:03;0.40;99.90
59311;DHT22;45078;51.654;21.250;2023-01-30T11:55:34;0.40;99.90
59311;DHT22;45078;51.654;21.250;2023-01-30T11:58:06;0.40;99.90
59311;DHT22;45078;51.654;21.250;2023-01-30T12:00:46;0.50;99.90
59311;DHT22;45078;51.654;21.250;2023-01-30T12:03:17;0.60;99.90
59311;DHT22;45078;51.654;21.250;2023-01-30T12:05:45;0.60;99.90
59311;DHT22;45078;51.654;21.250;2023-01-30T12:10:45;0.60;99.90
59311;DHT22;45078;51.654;21.250;2023-01-30T12:18:49;0.60;99.90
59311;DHT22;45078;51.654;21.250;2023-01-30T12:29:35;0.70;99.90
59311;DHT22;45078;51.654;21.250;2023-01-30T12:32:15;0.80;99.90
59311;DHT22;45078;51.654;21.250;2023-01-30T12:34:42;0.80;99.90
59311;DHT22;45078;51.654;21.250;2023-01-30T12:40:15;0.80;99.90
59311;DHT22;45078;51.654;21.250;2023-01-30T12:45:33;0.80;99.90
59311;DHT22;45078;51.654;21.250;2023-01-30T12:48:26;0.80;99.90
59311;DHT22;45078;51.654;21.250;2023-01-30T12:56:49;0.80;99.90
59311;DHT22;45078;51.654;21.250;2023-01-30T12:59:29;0.90;99.90
59311;DHT22;45078;51.654;21.250;2023-01-30T13:13:10;1.00;99.90
59311;DHT22;45078;51.654;21.250;2023-01-30T13:21:10;1.00;99.90
59311;DHT22;45078;51.654;21.250;2023-01-30T13:24:00;1.00;99.90
59311;DHT22;45078;51.654;21.250;2023-01-30T13:26:32;1.00;99.90
59311;DHT22;45078;51.654;21.250;2023-01-30T13:29:08;1.00;99.90
59311;DHT22;45078;51.654;21.250;2023-01-30T13:31:42;1.00;99.90
59311;DHT22;45078;51.654;21.250;2023-01-30T13:34:19;1.00;99.90
59311;DHT22;45078;51.654;21.250;2023-01-30T13:37:07;1.00;99.90
59311;DHT22;45078;51.654;21.250;2023-01-30T13:44:57;0.90;99.90
59311;DHT22;45078;51.654;21.250;2023-01-30T13:47:47;0.90;99.90
59311;DHT22;45078;51.654;21.250;2023-01-30T13:53:29;0.90;99.90
59311;DHT22;45078;51.654;21.250;2023-01-30T14:01:09;0.80;99.90
59311;DHT22;45078;51.654;21.250;2023-01-30T14:03:41;0.80;99.90
59311;DHT22;45078;51.654;21.250;2023-01-30T14:06:35;0.80;99.90
59311;DHT22;45078;51.654;21.250;2023-01-30T14:09:16;0.80;99.90
59311;DHT22;45078;51.654;21.250;2023-01-30T14:12:42;0.80;99.90
59311;DHT22;45078;51.654;21.250;2023-01-30T14:15:23;0.80;99.90
59311;DHT22;45078;51.654;21.250;2023-01-30T14:20:22;0.90;99.90
59311;DHT22;45078;51.654;21.250;2023-01-30T14:22:52;0.90;99.90
59311;DHT22;45078;51.654;21.250;2023-01-30T14:30:35;0.90;99.90
59311;DHT22;45078;51.654;21.250;2023-01-30T14:38:29;0.80;99.90
59311;DHT22;45078;51.654;21.250;2023-01-30T14:43:46;0.80;99.90
59311;DHT22;45078;51.654;21.250;2023-01-30T14:49:02;0.80;99.90
59311;DHT22;45078;51.654;21.250;2023-01-30T14:51:31;0.80;99.90
59311;DHT22;45078;51.654;21.250;2023-01-30T14:54:02;0.80;99.90
59311;DHT22;45078;51.654;21.250;2023-01-30T14:59:48;0.80;99.90
59311;DHT22;45078;51.654;21.250;2023-01-30T15:04:46;0.80;99.90
59311;DHT22;45078;51.654;21.250;2023-01-30T15:09:55;0.80;99.90
59311;DHT22;45078;51.654;21.250;2023-01-30T15:15:44;0.90;99.90
59311;DHT22;45078;51.654;21.250;2023-01-30T15:32:24;1.00;99.90
59311;DHT22;45078;51.654;21.250;2023-01-30T15:35:18;1.00;99.90
59311;DHT22;45078;51.654;21.250;2023-01-30T15:45:32;1.00;99.90
59311;DHT22;45078;51.654;21.250;2023-01-30T15:51:10;1.00;99.90
59311;DHT22;45078;51.654;21.250;2023-01-30T15:53:41;1.10;99.90
59311;DHT22;45078;51.654;21.250;2023-01-30T15:56:10;1.00;99.90
59311;DHT22;45078;51.654;21.250;2023-01-30T15:58:40;1.00;99.90
59311;DHT22;45078;51.654;21.250;2023-01-30T16:01:07;1.10;99.90
59311;DHT22;45078;51.654;21.250;2023-01-30T16:03:39;1.10;99.90
59311;DHT22;45078;51.654;21.250;2023-01-30T16:06:05;1.10;99.90
59311;DHT22;45078;51.654;21.250;2023-01-30T16:08:35;1.10;99.90
59311;DHT22;45078;51.654;21.250;2023-01-30T16:11:01;1.10;99.90
59311;DHT22;45078;51.654;21.250;2023-01-30T16:13:28;1.00;99.90
59311;DHT22;45078;51.654;21.250;2023-01-30T16:16:09;1.00;99.90
59311;DHT22;45078;51.654;21.250;2023-01-30T16:18:48;1.00;99.90
59311;DHT22;45078;51.654;21.250;2023-01-30T16:21:44;1.10;99.90
59311;DHT22;45078;51.654;21.250;2023-01-30T16:24:29;1.10;99.90
59311;DHT22;45078;51.654;21.250;2023-01-30T16:27:06;1.00;99.90
59311;DHT22;45078;51.654;21.250;2023-01-30T16:29:54;1.10;99.90
59311;DHT22;45078;51.654;21.250;2023-01-30T16:32:28;1.10;99.90
59311;DHT22;45078;51.654;21.250;2023-01-30T16:35:24;1.10;99.90
59311;DHT22;45078;51.654;21.250;2023-01-30T16:37:51;1.10;99.90
59311;DHT22;45078;51.654;21.250;2023-01-30T16:40:44;1.10;99.90
59311;DHT22;45078;51.654;21.250;2023-01-30T16:43:27;1.10;99.90
59311;DHT22;45078;51.654;21.250;2023-01-30T16:48:39;1.20;99.90
59311;DHT22;45078;51.654;21.250;2023-01-30T16:51:32;1.30;99.90
59311;DHT22;45078;51.654;21.250;2023-01-30T16:54:01;1.30;99.90
59311;DHT22;45078;51.654;21.250;2023-01-30T16:56:30;1.30;99.90
59311;DHT22;45078;51.654;21.250;2023-01-30T16:58:59;1.40;99.90
59311;DHT22;45078;51.654;21.250;2023-01-30T17:01:37;1.40;99.90
59311;DHT22;45078;51.654;21.250;2023-01-30T17:04:06;1.30;99.90
59311;DHT22;45078;51.654;21.250;2023-01-30T17:06:38;1.40;99.90
59311;DHT22;45078;51.654;21.250;2023-01-30T17:09:34;1.40;99.90
59311;DHT22;45078;51.654;21.250;2023-01-30T17:12:00;1.50;99.90
59311;DHT22;45078;51.654;21.250;2023-01-30T17:14:27;1.50;99.90
59311;DHT22;45078;51.654;21.250;2023-01-30T17:19:26;1.40;99.90
59311;DHT22;45078;51.654;21.250;2023-01-30T17:21:52;1.40;99.90
59311;DHT22;45078;51.654;21.250;2023-01-30T17:24:23;1.40;99.90
59311;DHT22;45078;51.654;21.250;2023-01-30T17:26:52;1.40;99.90
59311;DHT22;45078;51.654;21.250;2023-01-30T17:29:19;1.40;99.90
59311;DHT22;45078;51.654;21.250;2023-01-30T17:31:47;1.40;99.90
59311;DHT22;45078;51.654;21.250;2023-01-30T17:34:14;1.40;99.90
59311;DHT22;45078;51.654;21.250;2023-01-30T17:36:41;1.40;99.90
59311;DHT22;45078;51.654;21.250;2023-01-30T17:39:12;1.40;99.90
59311;DHT22;45078;51.654;21.250;2023-01-30T17:41:39;1.40;99.90
59311;DHT22;45078;51.654;21.250;2023-01-30T17:44:05;1.50;99.90
59311;DHT22;45078;51.654;21.250;2023-01-30T17:46:39;1.50;99.90
59311;DHT22;45078;51.654;21.250;2023-01-30T17:49:14;1.50;99.90
59311;DHT22;45078;51.654;21.250;2023-01-30T17:51:40;1.50;99.90
59311;DHT22;45078;51.654;21.250;2023-01-30T17:54:06;1.50;99.90
59311;DHT22;45078;51.654;21.250;2023-01-30T17:56:33;1.50;99.90
59311;DHT22;45078;51.654;21.250;2023-01-30T17:59:21;1.60;99.90
59311;DHT22;45078;51.654;21.250;2023-01-30T18:01:49;1.60;99.90
59311;DHT22;45078;51.654;21.250;2023-01-30T18:04:15;1.60;99.90
59311;DHT22;45078;51.654;21.250;2023-01-30T18:06:45;1.60;99.90
59311;DHT22;45078;51.654;21.250;2023-01-30T18:09:14;1.60;99.90
59311;DHT22;45078;51.654;21.250;2023-01-30T18:11:41;1.60;99.90
59311;DHT22;45078;51.654;21.250;2023-01-30T18:14:07;1.60;99.90
59311;DHT22;45078;51.654;21.250;2023-01-30T18:16:33;1.60;99.90
59311;DHT22;45078;51.654;21.250;2023-01-30T18:19:00;1.60;99.90
59311;DHT22;45078;51.654;21.250;2023-01-30T18:21:30;1.60;99.90
59311;DHT22;45078;51.654;21.250;2023-01-30T18:23:56;1.60;99.90
59311;DHT22;45078;51.654;21.250;2023-01-30T18:26:23;1.70;99.90
59311;DHT22;45078;51.654;21.250;2023-01-30T18:28:48;1.70;99.90
59311;DHT22;45078;51.654;21.250;2023-01-30T18:31:15;1.70;99.90
59311;DHT22;45078;51.654;21.250;2023-01-30T18:33:41;1.70;99.90
59311;DHT22;45078;51.654;21.250;2023-01-30T18:36:11;1.70;99.90
59311;DHT22;45078;51.654;21.250;2023-01-30T18:38:38;1.70;99.90
59311;DHT22;45078;51.654;21.250;2023-01-30T18:41:16;1.70;99.90
59311;DHT22;45078;51.654;21.250;2023-01-30T18:43:43;1.70;99.90
59311;DHT22;45078;51.654;21.250;2023-01-30T18:46:12;1.70;99.90
59311;DHT22;45078;51.654;21.250;2023-01-30T18:48:42;1.60;99.90
59311;DHT22;45078;51.654;21.250;2023-01-30T18:51:11;1.60;99.90
59311;DHT22;45078;51.654;21.250;2023-01-30T18:53:38;1.60;99.90
59311;DHT22;45078;51.654;21.250;2023-01-30T18:56:11;1.60;99.90
59311;DHT22;45078;51.654;21.250;2023-01-30T18:58:37;1.60;99.90
59311;DHT22;45078;51.654;21.250;2023-01-30T19:01:15;1.60;99.90
59311;DHT22;45078;51.654;21.250;2023-01-30T19:03:41;1.60;99.90
59311;DHT22;45078;51.654;21.250;2023-01-30T19:06:09;1.60;99.90
59311;DHT22;45078;51.654;21.250;2023-01-30T19:08:36;1.60;99.90
59311;DHT22;45078;51.654;21.250;2023-01-30T19:11:06;1.60;99.90